青森 の空港の天気 - METARとTAF

青森空港 ( RJSA / AOJ ) - 青森県青森市
飛行場実況気象(Metar)
観測時間06/24 18:00 JST (06/24 09:00 UTC)
風向・風速北北東 2m/s
視程10km以上
天気現象弱いしゅう雨
少しの雲 雲底高度 150m
全天の4割程度の雲 雲底高度 910m
全天の8割程度の雲 雲底高度 1520m
気温15℃
湿度88%
気圧1012hPa
METARRJSA 240900Z 02004KT 350V060 9999 -SHRA FEW005 SCT030 BKN050 15/13 Q1012
過去の天気等 Google飛行場航空写真 Wunderground天気予報

過去48時間のMETAR

飛行場予報(TAF)
発表時間: 6/24 14:05 JST (6/24 05:05 UTC)
予報対象時間: 24日15時 JST ~ 25日21時 JST
風向・風速北北東 3m/s
視程10km以上
少しの雲 雲底高度 300m
全天の4割程度の雲 雲底高度 910m
24日21時 JST ~ 24日24時 JST に一時的に
視程3000m
天気現象もや
少しの雲 雲底高度 30m
全天の8割程度の雲 雲底高度 90m
全天の8割程度の雲 雲底高度 150m
25日0時 JST ~ 25日9時 JST に一時的に
視程1500m
天気現象弱いしゅう雨 もや
少しの雲 雲底高度 30m
全天の8割程度の雲 雲底高度 90m
全天の8割程度の雲 雲底高度 150m
25日9時 JST ~ 25日12時 JST に徐々に
風向・風速西 4m/s
TAF RJSA 240505Z 2406/2512 03005KT 9999 FEW010 SCT030
TEMPO 2412/2415 3000 BR FEW001 BKN003 BKN005
TEMPO 2415/2500 1500 -SHRA BR FEW001 BKN003 BKN005
BECMG 2500/2503 27008KT
日本の空港のMETAR・TAFへのリンク

RJTT 東京国際空港
RJAA 新東京国際空港
RJBB 関西国際空港
RJOO 大阪空港
RJGG 中部国際空港
RJCC 新千歳空港
RJFF 福岡空港
ROAH 那覇空港


RJEC 旭川空港
RJCH 函館空港
RJCK 釧路空港
RJCM 女満別空港
RJCB 帯広空港
RJSA 青森空港
RJSS 仙台空港
RJSK 秋田空港
RJSF 福島空港
RJAH 茨城空港
RJSN 新潟空港
RJNT 富山空港
RJNK 小松飛行場
RJNS 静岡空港
RJOH 美保飛行場
RJOC 出雲空港
RJOB 岡山空港
RJOA 広島空港
RJOI 岩国飛行場
RJOT 高松空港
RJOM 松山空港
RJOK 高知空港
RJFR 北九州空港
RJFT 熊本空港
RJFU 長崎空港
RJFS 佐賀空港
RJFO 大分空港
RJFM 宮崎空港
RJFK 鹿児島空港
ROIG 石垣島空港
RJTY 横田飛行場
ROTM 普天間飛行場
RODN 嘉手納飛行場